Time;durP1;ratioP1;P1;durP2;ratioP2;P2;SDS_P1;SDS_P2;PMS_P1;PMS_P2;Temp;Humidity;BMP_temperature;BMP_pressure;BME280_temperature;BME280_humidity;BME280_pressure;Samples;Min_cycle;Max_cycle;Signal;HPM_P1;HPM_P2
2022/08/10 00:01:16;;;;;;;13.57;8.40;;;;;;;;;;5033743;28;20041;-80
2022/08/10 00:04:01;;;;;;;11.38;8.27;;;;;;;;;;5033459;28;20054;-77
2022/08/10 00:06:48;;;;;;;10.32;8.82;;;;;;;;;;5033453;28;20037;-80
2022/08/10 00:09:33;;;;;;;11.23;8.52;;;;;;;;;;5033386;28;20046;-81
2022/08/10 00:12:19;;;;;;;10.02;8.88;;;;;;;;;;5040164;28;20049;-80
2022/08/10 00:15:06;;;;;;;10.82;8.80;;;;;;;;;;5033329;28;20049;-79
2022/08/10 00:17:51;;;;;;;10.43;8.50;;;;;;;;;;5040001;28;20057;-80
2022/08/10 00:20:36;;;;;;;10.38;8.75;;;;;;;;;;5033898;28;20049;-81
2022/08/10 00:23:22;;;;;;;14.32;8.13;;;;;;;;;;5032926;28;20042;-80
2022/08/10 00:26:08;;;;;;;11.40;8.70;;;;;;;;;;5033560;28;20037;-79
2022/08/10 00:28:53;;;;;;;14.65;8.85;;;;;;;;;;5033221;28;20042;-78
2022/08/10 00:31:39;;;;;;;12.43;9.18;;;;;;;;;;5039765;28;20046;-80
2022/08/10 00:34:30;;;;;;;13.73;9.10;;;;;;;;;;5039972;28;20041;-81
2022/08/10 00:37:17;;;;;;;14.35;9.07;;;;;;;;;;5033377;28;20038;-78
2022/08/10 00:40:03;;;;;;;12.82;9.50;;;;;;;;;;5033287;28;20157;-80
2022/08/10 00:42:48;;;;;;;17.02;9.07;;;;;;;;;;5033340;28;20395;-79
2022/08/10 00:45:35;;;;;;;14.70;9.45;;;;;;;;;;5033117;28;20050;-78
2022/08/10 00:48:21;;;;;;;10.88;9.20;;;;;;;;;;5033252;28;20041;-81
2022/08/10 00:51:06;;;;;;;13.23;9.77;;;;;;;;;;5033041;28;20042;-82
2022/08/10 00:53:52;;;;;;;13.35;9.27;;;;;;;;;;5033257;28;20045;-80
2022/08/10 00:56:37;;;;;;;12.68;9.30;;;;;;;;;;5036871;28;20041;-80
2022/08/10 00:59:23;;;;;;;14.80;10.23;;;;;;;;;;5036355;28;20057;-80
2022/08/10 01:02:09;;;;;;;14.07;9.57;;;;;;;;;;5028840;28;20045;-80
2022/08/10 01:04:54;;;;;;;12.13;8.93;;;;;;;;;;5043049;28;20046;-83
2022/08/10 01:08:00;;;;;;;14.98;10.15;;;;;;;;;;5042973;28;20487;-80
2022/08/10 01:11:10;;;;;;;14.82;9.02;;;;;;;;;;5036623;28;20045;-81
2022/08/10 01:14:08;;;;;;;14.10;9.10;;;;;;;;;;5036137;28;20049;-81
2022/08/10 01:17:11;;;;;;;16.63;9.55;;;;;;;;;;5036436;28;20045;-80
2022/08/10 01:20:34;;;;;;;12.02;9.27;;;;;;;;;;5036128;28;20395;-81
2022/08/10 01:23:28;;;;;;;13.13;9.32;;;;;;;;;;5021052;28;20038;-80
2022/08/10 01:26:33;;;;;;;11.32;8.93;;;;;;;;;;5036207;28;20041;-81
2022/08/10 01:29:33;;;;;;;17.13;9.60;;;;;;;;;;5042595;28;20049;-83
2022/08/10 01:32:32;;;;;;;14.15;9.00;;;;;;;;;;5035832;28;20037;-83
2022/08/10 01:35:21;;;;;;;12.35;9.00;;;;;;;;;;5042330;28;20045;-79
2022/08/10 01:38:11;;;;;;;14.80;9.50;;;;;;;;;;5035777;28;20041;-79
2022/08/10 01:41:17;;;;;;;16.67;8.98;;;;;;;;;;5035836;28;20041;-79
2022/08/10 01:44:10;;;;;;;13.07;9.55;;;;;;;;;;5035832;28;20053;-79
2022/08/10 01:48:27;;;;;;;12.18;8.80;;;;;;;;;;5035863;28;20041;-81
2022/08/10 01:50:19;;;;;;;11.80;8.75;;;;;;;;;;5035604;28;20041;-81
2022/08/10 01:53:10;;;;;;;74.65;45.75;;;;;;;;;;5035477;28;20049;-80
2022/08/10 01:55:56;;;;;;;126.85;84.78;;;;;;;;;;5035424;28;20041;-81
2022/08/10 01:58:44;;;;;;;38.97;27.15;;;;;;;;;;5042239;28;20046;-83
2022/08/10 02:01:37;;;;;;;28.65;20.35;;;;;;;;;;5035707;28;20463;-83
2022/08/10 02:04:24;;;;;;;17.55;11.98;;;;;;;;;;5041343;28;20057;-84
2022/08/10 02:07:16;;;;;;;13.38;9.40;;;;;;;;;;5034492;28;20391;-79
2022/08/10 02:10:05;;;;;;;12.15;9.13;;;;;;;;;;5034999;28;20037;-83
2022/08/10 02:12:55;;;;;;;12.52;9.23;;;;;;;;;;5035028;28;20050;-81
2022/08/10 02:15:44;;;;;;;14.35;10.02;;;;;;;;;;5034901;28;20049;-81
2022/08/10 02:18:31;;;;;;;19.30;12.43;;;;;;;;;;5034959;28;20045;-82
2022/08/10 02:21:18;;;;;;;14.13;9.73;;;;;;;;;;5035414;28;20037;-81
2022/08/10 02:24:07;;;;;;;12.52;9.40;;;;;;;;;;5034994;28;20045;-83
2022/08/10 02:26:54;;;;;;;12.90;9.00;;;;;;;;;;5041083;28;20049;-83
2022/08/10 02:29:42;;;;;;;12.48;9.13;;;;;;;;;;5035068;28;20049;-83
2022/08/10 02:32:31;;;;;;;12.43;9.48;;;;;;;;;;5034443;28;20041;-81
2022/08/10 02:35:18;;;;;;;12.95;9.43;;;;;;;;;;5034475;28;20057;-79
2022/08/10 02:38:06;;;;;;;14.30;9.73;;;;;;;;;;5034796;28;20041;-80
2022/08/10 02:40:56;;;;;;;12.98;9.57;;;;;;;;;;5032321;28;20049;-81
2022/08/10 02:43:53;;;;;;;14.63;9.57;;;;;;;;;;5034427;28;20399;-82
2022/08/10 02:46:49;;;;;;;12.52;9.43;;;;;;;;;;5034729;28;20475;-80
2022/08/10 02:49:41;;;;;;;14.93;9.23;;;;;;;;;;5034457;28;20045;-79
2022/08/10 02:52:46;;;;;;;14.70;9.73;;;;;;;;;;5034362;28;20049;-82
2022/08/10 02:55:47;;;;;;;13.43;8.80;;;;;;;;;;5034239;28;20045;-82
2022/08/10 02:58:41;;;;;;;13.38;9.02;;;;;;;;;;5034030;28;20037;-82
2022/08/10 03:01:32;;;;;;;13.60;9.93;;;;;;;;;;5034716;28;20049;-80
2022/08/10 03:04:22;;;;;;;12.73;8.77;;;;;;;;;;5033877;28;20041;-82
2022/08/10 03:07:11;;;;;;;11.85;9.05;;;;;;;;;;5034611;28;20049;-80
2022/08/10 03:10:00;;;;;;;11.93;9.13;;;;;;;;;;5040794;28;20057;-82
2022/08/10 03:12:49;;;;;;;12.45;9.25;;;;;;;;;;5033932;28;20045;-80
2022/08/10 03:15:37;;;;;;;12.98;8.85;;;;;;;;;;5025604;28;20041;-80
2022/08/10 03:18:24;;;;;;;12.25;8.98;;;;;;;;;;5033816;28;20403;-79
2022/08/10 03:21:12;;;;;;;12.00;8.95;;;;;;;;;;5034075;28;20045;-81
2022/08/10 03:24:01;;;;;;;13.30;9.27;;;;;;;;;;5033256;28;20041;-79
2022/08/10 03:26:49;;;;;;;13.65;9.27;;;;;;;;;;5033332;28;20042;-79
2022/08/10 03:29:36;;;;;;;14.02;9.15;;;;;;;;;;5033096;28;20045;-81
2022/08/10 03:32:24;;;;;;;14.15;9.63;;;;;;;;;;5033006;28;20387;-81
2022/08/10 03:35:11;;;;;;;15.30;9.18;;;;;;;;;;5032928;28;20050;-80
2022/08/10 03:37:56;;;;;;;11.43;9.30;;;;;;;;;;5033249;28;20045;-81
2022/08/10 03:40:46;;;;;;;14.23;9.25;;;;;;;;;;5033170;28;20045;-79
2022/08/10 03:43:32;;;;;;;13.52;9.35;;;;;;;;;;5033635;28;20046;-81
2022/08/10 03:46:20;;;;;;;12.38;8.50;;;;;;;;;;5033179;28;20041;-82
2022/08/10 03:49:06;;;;;;;17.20;9.93;;;;;;;;;;5032992;28;20037;-79
2022/08/10 03:51:53;;;;;;;16.65;9.82;;;;;;;;;;5024538;28;20046;-82
2022/08/10 03:54:38;;;;;;;12.40;9.38;;;;;;;;;;5032398;28;20045;-80
2022/08/10 03:57:25;;;;;;;13.30;9.20;;;;;;;;;;5033239;28;20394;-81
2022/08/10 04:00:11;;;;;;;13.52;9.25;;;;;;;;;;5032449;28;20045;-81
2022/08/10 04:02:57;;;;;;;16.50;10.38;;;;;;;;;;5032674;28;20041;-80
2022/08/10 04:05:42;;;;;;;13.00;9.82;;;;;;;;;;5032626;28;20049;-81
2022/08/10 04:08:27;;;;;;;15.60;9.80;;;;;;;;;;5032849;28;20483;-80
2022/08/10 04:11:13;;;;;;;14.48;9.75;;;;;;;;;;5032806;28;20211;-78
2022/08/10 04:13:58;;;;;;;15.10;9.52;;;;;;;;;;5032565;28;20037;-79
2022/08/10 04:16:44;;;;;;;14.70;10.02;;;;;;;;;;5032725;28;20045;-79
2022/08/10 04:19:39;;;;;;;15.15;9.00;;;;;;;;;;5032352;28;20042;-78
2022/08/10 04:22:26;;;;;;;14.27;9.02;;;;;;;;;;4990949;28;1195044;-81
2022/08/10 04:25:14;;;;;;;13.30;9.70;;;;;;;;;;5018584;28;20051;-81
2022/08/10 04:28:00;;;;;;;14.50;10.07;;;;;;;;;;5033768;28;20514;-80
2022/08/10 04:30:46;;;;;;;11.80;9.23;;;;;;;;;;5043374;28;20049;-83
2022/08/10 04:33:33;;;;;;;12.10;9.10;;;;;;;;;;5036964;28;20041;-83
2022/08/10 04:36:20;;;;;;;10.73;9.27;;;;;;;;;;5043089;28;20049;-80
2022/08/10 04:39:06;;;;;;;13.38;9.38;;;;;;;;;;5043619;28;20042;-79
2022/08/10 04:41:51;;;;;;;13.55;10.05;;;;;;;;;;5037349;28;20054;-82
2022/08/10 04:44:37;;;;;;;13.18;9.30;;;;;;;;;;5036873;28;20053;-82
2022/08/10 04:47:23;;;;;;;15.63;9.60;;;;;;;;;;5036811;28;20049;-83
2022/08/10 04:50:08;;;;;;;13.10;9.07;;;;;;;;;;5043624;28;20041;-84
2022/08/10 04:52:54;;;;;;;11.27;8.90;;;;;;;;;;5037283;28;20050;-83
2022/08/10 04:55:40;;;;;;;12.52;9.00;;;;;;;;;;5036616;28;20029;-83
2022/08/10 04:58:25;;;;;;;12.50;8.82;;;;;;;;;;5036455;28;20045;-83
2022/08/10 05:01:10;;;;;;;13.30;8.80;;;;;;;;;;5036497;28;20041;-81
2022/08/10 05:03:56;;;;;;;16.73;9.00;;;;;;;;;;5043286;28;20049;-81
2022/08/10 05:06:42;;;;;;;13.98;9.43;;;;;;;;;;5036556;28;20045;-81
2022/08/10 05:09:27;;;;;;;13.48;9.18;;;;;;;;;;5036402;28;20041;-80
2022/08/10 05:12:13;;;;;;;11.85;8.20;;;;;;;;;;5036546;28;20049;-83
2022/08/10 05:14:58;;;;;;;16.27;9.70;;;;;;;;;;5043215;28;20506;-82
2022/08/10 05:17:44;;;;;;;17.17;10.43;;;;;;;;;;5036518;28;20045;-81
2022/08/10 05:20:30;;;;;;;13.30;9.38;;;;;;;;;;5035968;28;20071;-83
2022/08/10 05:23:15;;;;;;;19.38;11.90;;;;;;;;;;5035595;28;20045;-83
2022/08/10 05:26:01;;;;;;;16.00;11.38;;;;;;;;;;5036148;28;20049;-79
2022/08/10 05:28:46;;;;;;;17.40;10.60;;;;;;;;;;5035968;28;20042;-80
2022/08/10 05:31:32;;;;;;;16.90;11.38;;;;;;;;;;5035996;28;20045;-80
2022/08/10 05:34:20;;;;;;;20.95;10.90;;;;;;;;;;5035321;28;20057;-81
2022/08/10 05:37:05;;;;;;;15.25;10.07;;;;;;;;;;5035959;28;20054;-83
2022/08/10 05:39:54;;;;;;;15.80;10.35;;;;;;;;;;5035654;28;20394;-80
2022/08/10 05:42:40;;;;;;;14.80;10.45;;;;;;;;;;5042861;28;20463;-80
2022/08/10 05:45:26;;;;;;;17.08;10.73;;;;;;;;;;5035568;28;20394;-80
2022/08/10 05:48:11;;;;;;;14.60;8.80;;;;;;;;;;5035603;28;20049;-82
2022/08/10 05:50:57;;;;;;;18.25;9.77;;;;;;;;;;5035477;28;20490;-81
2022/08/10 05:53:43;;;;;;;12.65;8.70;;;;;;;;;;5035051;28;20045;-81
2022/08/10 05:56:30;;;;;;;15.05;9.00;;;;;;;;;;5035489;28;20045;-79
2022/08/10 05:59:16;;;;;;;12.57;9.25;;;;;;;;;;5035314;28;20033;-81
2022/08/10 06:02:07;;;;;;;14.27;8.02;;;;;;;;;;5042578;28;20041;-79
2022/08/10 06:04:54;;;;;;;10.63;8.40;;;;;;;;;;5035129;28;20049;-80
2022/08/10 06:07:47;;;;;;;15.43;9.55;;;;;;;;;;5034691;28;20045;-80
2022/08/10 06:10:35;;;;;;;16.35;9.60;;;;;;;;;;5034956;28;20033;-82
2022/08/10 06:16:28;;;;;;;17.17;10.13;;;;;;;;;;5027013;28;20478;-80
2022/08/10 06:19:14;;;;;;;22.85;9.60;;;;;;;;;;5041231;28;20491;-80
2022/08/10 06:22:01;;;;;;;15.77;8.82;;;;;;;;;;5034584;28;20479;-79
2022/08/10 06:24:47;;;;;;;19.15;11.73;;;;;;;;;;5041189;28;20037;-80
2022/08/10 06:27:34;;;;;;;30.42;12.30;;;;;;;;;;5034891;28;20399;-81
2022/08/10 06:30:21;;;;;;;32.65;12.98;;;;;;;;;;5034898;28;20045;-81
2022/08/10 06:33:08;;;;;;;17.92;11.95;;;;;;;;;;5034723;28;20489;-79
2022/08/10 06:35:55;;;;;;;20.92;11.10;;;;;;;;;;5040946;28;20041;-82
2022/08/10 06:38:42;;;;;;;17.70;10.63;;;;;;;;;;5034923;28;20049;-83
2022/08/10 06:41:31;;;;;;;20.65;12.27;;;;;;;;;;5034409;28;20045;-82
2022/08/10 06:44:26;;;;;;;14.63;9.98;;;;;;;;;;5040937;28;20045;-81
2022/08/10 06:47:13;;;;;;;19.05;12.07;;;;;;;;;;5034373;28;20041;-79
2022/08/10 06:50:04;;;;;;;21.38;12.70;;;;;;;;;;5034542;28;20045;-80
2022/08/10 06:52:51;;;;;;;26.00;12.40;;;;;;;;;;5033967;28;20046;-81
2022/08/10 06:55:41;;;;;;;15.13;9.02;;;;;;;;;;5034354;28;20045;-80
2022/08/10 06:58:38;;;;;;;19.48;11.98;;;;;;;;;;5034216;28;20042;-80
2022/08/10 07:01:32;;;;;;;13.55;9.32;;;;;;;;;;5041349;28;20502;-81
2022/08/10 07:04:33;;;;;;;25.67;12.60;;;;;;;;;;5033628;28;20041;-80
2022/08/10 07:07:22;;;;;;;15.40;8.05;;;;;;;;;;5033969;28;20037;-81
2022/08/10 07:10:09;;;;;;;18.35;10.85;;;;;;;;;;5040626;28;20041;-80
2022/08/10 07:12:57;;;;;;;21.05;12.57;;;;;;;;;;5033814;28;20049;-79
2022/08/10 07:15:43;;;;;;;19.67;11.45;;;;;;;;;;5034052;28;20475;-79
2022/08/10 07:18:31;;;;;;;20.55;12.30;;;;;;;;;;5040178;28;20053;-78
2022/08/10 07:21:17;;;;;;;19.23;12.30;;;;;;;;;;5034023;28;20053;-81
2022/08/10 07:24:06;;;;;;;20.48;12.57;;;;;;;;;;5034215;28;20049;-78
2022/08/10 07:26:55;;;;;;;19.17;11.80;;;;;;;;;;5040459;28;20041;-76
2022/08/10 07:29:42;;;;;;;21.15;12.30;;;;;;;;;;5040451;28;20486;-80
2022/08/10 07:32:28;;;;;;;16.02;9.63;;;;;;;;;;5025964;28;20038;-83
2022/08/10 07:35:17;;;;;;;20.25;12.80;;;;;;;;;;5033856;28;20049;-83
2022/08/10 07:38:05;;;;;;;16.23;10.30;;;;;;;;;;5033944;28;20045;-80
2022/08/10 07:40:52;;;;;;;22.02;14.23;;;;;;;;;;5039864;28;20041;-78
2022/08/10 07:43:39;;;;;;;19.95;13.23;;;;;;;;;;5040219;28;20049;-78
2022/08/10 07:46:28;;;;;;;33.67;21.27;;;;;;;;;;5033539;28;20033;-81
2022/08/10 07:49:19;;;;;;;172.15;115.40;;;;;;;;;;5033142;28;20042;-81
2022/08/10 07:52:07;;;;;;;19.52;12.90;;;;;;;;;;5040053;28;20490;-78
2022/08/10 07:54:55;;;;;;;19.40;13.05;;;;;;;;;;5039555;28;20049;-83
2022/08/10 07:57:43;;;;;;;18.63;11.45;;;;;;;;;;5033842;28;20033;-83
2022/08/10 08:00:30;;;;;;;24.70;13.32;;;;;;;;;;5033439;28;20042;-82
2022/08/10 08:03:20;;;;;;;18.55;11.70;;;;;;;;;;5033949;28;20037;-83
2022/08/10 08:06:05;;;;;;;17.23;10.98;;;;;;;;;;5037001;28;20045;-83
2022/08/10 08:08:50;;;;;;;32.08;12.18;;;;;;;;;;5036643;28;20383;-80
2022/08/10 08:11:39;;;;;;;24.70;12.85;;;;;;;;;;5037508;28;20042;-83
2022/08/10 08:14:26;;;;;;;22.05;11.40;;;;;;;;;;5037784;28;20045;-82
2022/08/10 08:17:15;;;;;;;19.60;11.68;;;;;;;;;;5023423;28;20394;-83
2022/08/10 08:20:03;;;;;;;23.25;12.80;;;;;;;;;;5038049;28;20045;-84
2022/08/10 08:22:49;;;;;;;21.48;12.27;;;;;;;;;;5037287;28;20045;-84
2022/08/10 08:25:34;;;;;;;21.35;11.95;;;;;;;;;;5029540;28;20403;-84
2022/08/10 08:28:20;;;;;;;16.83;12.02;;;;;;;;;;5037297;28;20037;-84
2022/08/10 08:31:07;;;;;;;20.05;11.93;;;;;;;;;;5031949;28;20045;-82
2022/08/10 08:33:54;;;;;;;21.25;12.70;;;;;;;;;;5038530;28;20053;-84
2022/08/10 08:36:40;;;;;;;18.27;12.05;;;;;;;;;;5038079;28;20049;-82
2022/08/10 08:39:26;;;;;;;18.05;12.00;;;;;;;;;;5038389;28;20394;-84
2022/08/10 08:42:26;;;;;;;16.27;10.18;;;;;;;;;;5025717;28;20475;-82
2022/08/10 08:45:22;;;;;;;13.65;9.23;;;;;;;;;;5039264;28;20491;-83
2022/08/10 08:48:10;;;;;;;23.88;12.85;;;;;;;;;;5037415;28;20041;-82
2022/08/10 08:51:13;;;;;;;15.38;9.07;;;;;;;;;;5037565;28;20053;-83
2022/08/10 08:54:22;;;;;;;22.20;11.27;;;;;;;;;;5037261;28;20045;-83
2022/08/10 08:57:39;;;;;;;23.55;12.02;;;;;;;;;;5036958;28;20053;-83
2022/08/10 09:00:34;;;;;;;21.13;12.13;;;;;;;;;;5037058;28;20045;-84
2022/08/10 09:03:38;;;;;;;;;;;;;;;;;;5037889;28;20041;-83
2022/08/10 09:07:07;;;;;;;20.05;11.93;;;;;;;;;;5037187;28;19913;-84
2022/08/10 09:10:00;;;;;;;17.80;11.07;;;;;;;;;;5037156;28;20045;-85
2022/08/10 09:12:56;;;;;;;16.90;10.20;;;;;;;;;;5036226;28;20037;-81
2022/08/10 09:15:56;;;;;;;15.48;10.07;;;;;;;;;;5036581;28;20629;-84
2022/08/10 09:18:57;;;;;;;16.42;10.77;;;;;;;;;;5043571;28;20403;-84
2022/08/10 09:22:06;;;;;;;18.67;12.00;;;;;;;;;;5044080;28;20042;-81
2022/08/10 09:24:59;;;;;;;16.42;11.68;;;;;;;;;;5044130;28;20108;-80
2022/08/10 09:27:47;;;;;;;19.10;12.18;;;;;;;;;;5041117;28;20041;-81
2022/08/10 09:30:45;;;;;;;19.67;13.40;;;;;;;;;;5040462;28;20049;-79
2022/08/10 09:33:43;;;;;;;20.92;12.75;;;;;;;;;;5039872;28;20057;-81
2022/08/10 09:37:07;;;;;;;21.20;12.98;;;;;;;;;;5039912;28;20398;-80
2022/08/10 09:40:01;;;;;;;16.70;11.15;;;;;;;;;;5042681;28;20049;-80
2022/08/10 09:43:13;;;;;;;18.55;12.02;;;;;;;;;;5035441;28;20037;-81
2022/08/10 09:46:09;;;;;;;15.40;10.10;;;;;;;;;;5042054;28;20491;-81
2022/08/10 09:49:14;;;;;;;18.58;11.57;;;;;;;;;;5035796;28;20067;-84
2022/08/10 09:52:19;;;;;;;;;;;;;;;;;;5036394;28;20037;-83
2022/08/10 09:55:10;;;;;;;19.23;10.98;;;;;;;;;;5020458;28;20263;-78
2022/08/10 09:58:25;;;;;;;20.95;10.77;;;;;;;;;;5035106;28;20053;-80
2022/08/10 10:01:39;;;;;;;21.85;12.57;;;;;;;;;;5035661;28;20045;-85
2022/08/10 10:05:03;;;;;;;17.73;11.30;;;;;;;;;;5027708;28;20042;-83
2022/08/10 10:07:56;;;;;;;16.90;10.90;;;;;;;;;;5033242;28;20053;-79
2022/08/10 10:11:13;;;;;;;19.40;12.70;;;;;;;;;;5041361;28;20042;-80
2022/08/10 10:14:04;;;;;;;19.30;11.38;;;;;;;;;;5026729;28;20395;-79
2022/08/10 10:17:04;;;;;;;20.38;10.98;;;;;;;;;;5026943;28;20057;-79
2022/08/10 10:20:13;;;;;;;17.45;9.75;;;;;;;;;;5041410;28;20049;-80
2022/08/10 10:23:25;;;;;;;16.63;12.18;;;;;;;;;;5034564;28;20042;-79
2022/08/10 10:26:19;;;;;;;17.10;10.93;;;;;;;;;;5034444;28;20041;-79
2022/08/10 10:29:18;;;;;;;;;;;;;;;;;;5041685;28;20045;-79
2022/08/10 10:32:24;;;;;;;13.77;9.20;;;;;;;;;;5041244;28;19917;-81
2022/08/10 10:35:33;;;;;;;17.48;9.85;;;;;;;;;;5041235;28;20045;-80
2022/08/10 10:38:25;;;;;;;16.25;10.50;;;;;;;;;;5034737;28;20045;-81
2022/08/10 10:41:28;;;;;;;13.40;9.93;;;;;;;;;;5034504;28;20491;-81
2022/08/10 10:44:28;;;;;;;14.52;9.48;;;;;;;;;;5040381;28;20037;-79
2022/08/10 10:48:07;;;;;;;13.07;9.10;;;;;;;;;;5037894;28;20046;-79
2022/08/10 10:51:24;;;;;;;15.23;9.52;;;;;;;;;;4939495;28;20051;-78
2022/08/10 10:54:35;;;;;;;11.27;8.10;;;;;;;;;;5034656;28;20053;-78
2022/08/10 10:57:28;;;;;;;12.98;8.70;;;;;;;;;;5040869;28;20053;-82
2022/08/10 11:00:17;;;;;;;12.05;9.30;;;;;;;;;;5040609;28;20395;-79
2022/08/10 11:03:22;;;;;;;11.73;8.93;;;;;;;;;;5034126;28;20049;-78
2022/08/10 11:06:19;;;;;;;18.35;8.98;;;;;;;;;;5033969;28;20045;-78
2022/08/10 11:09:10;;;;;;;11.52;8.70;;;;;;;;;;5040684;28;20403;-81
2022/08/10 11:11:59;;;;;;;12.50;9.00;;;;;;;;;;5034549;28;20049;-82
2022/08/10 11:15:07;;;;;;;12.45;8.93;;;;;;;;;;5033721;28;20046;-79
2022/08/10 11:18:00;;;;;;;12.98;9.05;;;;;;;;;;5033197;28;20049;-82
2022/08/10 11:21:07;;;;;;;13.20;9.03;;;;;;;;;;5033637;28;20053;-82
2022/08/10 11:23:58;;;;;;;13.63;9.38;;;;;;;;;;5033151;28;20049;-80
2022/08/10 11:27:14;;;;;;;13.18;9.00;;;;;;;;;;5033949;28;20053;-78
2022/08/10 11:30:12;;;;;;;11.75;8.73;;;;;;;;;;5012684;28;20045;-78
2022/08/10 11:33:16;;;;;;;9.55;7.57;;;;;;;;;;5040150;28;20049;-82
2022/08/10 11:36:13;;;;;;;9.88;7.53;;;;;;;;;;5032799;28;20050;-80
2022/08/10 11:39:14;;;;;;;10.93;7.88;;;;;;;;;;5033270;28;20057;-80
2022/08/10 11:42:14;;;;;;;9.93;7.40;;;;;;;;;;5033610;28;20075;-80
2022/08/10 11:45:04;;;;;;;10.88;7.88;;;;;;;;;;5040029;28;20037;-81
2022/08/10 11:47:57;;;;;;;10.65;7.70;;;;;;;;;;5033927;28;20503;-79
2022/08/10 11:51:03;;;;;;;11.43;7.55;;;;;;;;;;5040015;28;20041;-80
2022/08/10 11:54:11;;;;;;;10.27;6.97;;;;;;;;;;5033395;28;20390;-80
2022/08/10 11:56:59;;;;;;;9.00;7.18;;;;;;;;;;5039991;28;20049;-81
2022/08/10 11:59:57;;;;;;;10.68;7.70;;;;;;;;;;5033514;28;20387;-81
2022/08/10 12:02:52;;;;;;;16.15;8.32;;;;;;;;;;5033407;28;20037;-76
2022/08/10 12:05:40;;;;;;;12.13;5.88;;;;;;;;;;5033059;28;20041;-74
2022/08/10 12:08:28;;;;;;;13.23;7.53;;;;;;;;;;5033369;28;20160;-76
2022/08/10 12:11:20;;;;;;;11.65;8.07;;;;;;;;;;5039120;28;20049;-75
2022/08/10 12:14:16;;;;;;;15.85;10.77;;;;;;;;;;5039795;28;20045;-76
2022/08/10 12:17:06;;;;;;;18.60;11.65;;;;;;;;;;5039996;28;20383;-75
2022/08/10 12:20:10;;;;;;;11.02;6.88;;;;;;;;;;5033096;28;20053;-76
2022/08/10 12:23:06;;;;;;;10.95;6.75;;;;;;;;;;5032681;28;20049;-75
2022/08/10 12:26:07;;;;;;;10.38;7.82;;;;;;;;;;5033166;28;20041;-78
2022/08/10 12:29:34;;;;;;;7.88;5.75;;;;;;;;;;5039327;28;20046;-74
2022/08/10 12:32:47;;;;;;;6.20;4.95;;;;;;;;;;4933617;29;20055;-76
2022/08/10 12:35:50;;;;;;;6.93;4.93;;;;;;;;;;4940251;29;20044;-77
2022/08/10 12:38:45;;;;;;;5.68;5.07;;;;;;;;;;5033406;28;20355;-76
2022/08/10 12:41:36;;;;;;;7.72;5.72;;;;;;;;;;5039542;28;20045;-76
2022/08/10 12:44:31;;;;;;;8.27;5.50;;;;;;;;;;5039664;28;20426;-76
2022/08/10 12:47:38;;;;;;;6.40;5.28;;;;;;;;;;5032932;28;20042;-76
2022/08/10 12:50:41;;;;;;;8.70;5.32;;;;;;;;;;5034374;28;20434;-76
2022/08/10 12:53:48;;;;;;;6.80;5.30;;;;;;;;;;5036421;28;20490;-76
2022/08/10 12:56:48;;;;;;;10.02;5.32;;;;;;;;;;5036761;28;20041;-76
2022/08/10 12:59:40;;;;;;;6.93;5.43;;;;;;;;;;5042894;28;20041;-76
2022/08/10 13:02:31;;;;;;;9.05;6.68;;;;;;;;;;5043231;28;20053;-76
2022/08/10 13:05:18;;;;;;;9.57;6.47;;;;;;;;;;5036048;28;20042;-76
2022/08/10 13:11:11;;;;;;;7.45;6.03;;;;;;;;;;5027872;28;20390;-76
2022/08/10 13:14:06;;;;;;;8.32;6.28;;;;;;;;;;5036236;28;20391;-76
2022/08/10 13:16:54;;;;;;;;;;;;;;;;;;5036716;28;20400;-77
2022/08/10 13:19:44;;;;;;;6.18;5.15;;;;;;;;;;5042873;28;20243;-76
2022/08/10 13:22:33;;;;;;;7.00;5.07;;;;;;;;;;5035685;28;20041;-76
2022/08/10 13:25:27;;;;;;;6.15;4.65;;;;;;;;;;5036267;28;20042;-76
2022/08/10 13:28:20;;;;;;;7.35;5.75;;;;;;;;;;5042686;28;20041;-75
2022/08/10 13:31:09;;;;;;;6.05;5.00;;;;;;;;;;5042534;28;20037;-75
2022/08/10 13:34:04;;;;;;;6.70;4.93;;;;;;;;;;5036060;28;20045;-75
2022/08/10 13:36:54;;;;;;;6.25;5.32;;;;;;;;;;5042405;28;20410;-75
2022/08/10 13:39:43;;;;;;;6.63;4.97;;;;;;;;;;5041960;28;20038;-76
2022/08/10 13:42:32;;;;;;;7.00;5.03;;;;;;;;;;5035438;28;20042;-76
2022/08/10 13:45:21;;;;;;;6.85;5.32;;;;;;;;;;5042230;28;20041;-76
2022/08/10 13:48:19;;;;;;;6.93;5.60;;;;;;;;;;5035900;28;20045;-77
2022/08/10 13:51:06;;;;;;;6.00;4.63;;;;;;;;;;5035644;28;20041;-76
2022/08/10 13:53:55;;;;;;;7.45;5.28;;;;;;;;;;5041913;28;20053;-76
2022/08/10 13:56:43;;;;;;;6.68;5.53;;;;;;;;;;5041925;28;20046;-77
2022/08/10 13:59:29;;;;;;;5.88;5.28;;;;;;;;;;5041500;28;20037;-77
2022/08/10 14:02:21;;;;;;;5.60;5.07;;;;;;;;;;5017200;28;20050;-76
2022/08/10 14:05:08;;;;;;;8.27;6.28;;;;;;;;;;5035560;28;20049;-76
2022/08/10 14:07:54;;;;;;;9.60;7.10;;;;;;;;;;5034871;28;20053;-78
2022/08/10 14:10:42;;;;;;;15.57;10.65;;;;;;;;;;5035149;28;20041;-78
2022/08/10 14:13:31;;;;;;;7.60;6.15;;;;;;;;;;5035080;28;20046;-78
2022/08/10 14:16:18;;;;;;;6.22;4.88;;;;;;;;;;5041115;28;20042;-78
2022/08/10 14:19:10;;;;;;;5.05;4.40;;;;;;;;;;5035265;28;20042;-76
2022/08/10 14:21:56;;;;;;;7.18;4.78;;;;;;;;;;5034630;28;20049;-79
2022/08/10 14:24:41;;;;;;;6.57;5.07;;;;;;;;;;5034639;28;20041;-77
2022/08/10 14:27:31;;;;;;;6.57;4.65;;;;;;;;;;5035062;28;20053;-76
2022/08/10 14:30:16;;;;;;;6.97;5.47;;;;;;;;;;5034772;28;20053;-78
2022/08/10 14:33:04;;;;;;;7.93;5.38;;;;;;;;;;5034079;28;20041;-79
2022/08/10 14:35:51;;;;;;;6.13;5.03;;;;;;;;;;5034382;28;20042;-77
2022/08/10 14:38:42;;;;;;;7.60;4.70;;;;;;;;;;5033397;28;20049;-76
2022/08/10 14:41:31;;;;;;;6.45;5.68;;;;;;;;;;5019250;28;20041;-78
2022/08/10 14:44:17;;;;;;;5.40;4.90;;;;;;;;;;5034217;28;20206;-77
2022/08/10 14:47:04;;;;;;;13.60;5.20;;;;;;;;;;5034712;28;20042;-77
2022/08/10 14:49:51;;;;;;;6.03;5.40;;;;;;;;;;5033898;28;20046;-78
2022/08/10 14:52:41;;;;;;;5.35;4.47;;;;;;;;;;5033563;28;20053;-77
2022/08/10 14:55:26;;;;;;;8.10;5.22;;;;;;;;;;5033749;28;20414;-77
2022/08/10 14:58:18;;;;;;;7.25;5.10;;;;;;;;;;5033994;28;20045;-77
2022/08/10 15:01:05;;;;;;;7.22;4.50;;;;;;;;;;5040704;28;20042;-77
2022/08/10 15:04:03;;;;;;;8.95;6.63;;;;;;;;;;5040615;28;20037;-77
2022/08/10 15:06:59;;;;;;;8.13;6.22;;;;;;;;;;5033941;28;20057;-77
2022/08/10 15:09:48;;;;;;;7.95;6.40;;;;;;;;;;5040335;28;20042;-77
2022/08/10 15:12:43;;;;;;;7.85;6.43;;;;;;;;;;5033547;28;20054;-76
2022/08/10 15:15:30;;;;;;;8.65;7.32;;;;;;;;;;5033678;28;20049;-76
2022/08/10 15:18:16;;;;;;;8.75;6.13;;;;;;;;;;5034049;28;20049;-76
2022/08/10 15:21:03;;;;;;;9.23;6.00;;;;;;;;;;5040116;28;20045;-77
2022/08/10 15:23:55;;;;;;;6.63;4.88;;;;;;;;;;5033607;28;20041;-75
2022/08/10 15:26:42;;;;;;;8.18;5.20;;;;;;;;;;5033624;28;20033;-76
2022/08/10 15:29:30;;;;;;;8.18;5.40;;;;;;;;;;5033189;28;20045;-76
2022/08/10 15:38:40;;;;;;;4.68;3.70;;;;;;;;;;5033813;28;20041;-77
2022/08/10 15:41:39;;;;;;;5.63;3.53;;;;;;;;;;5033342;28;20033;-78
2022/08/10 15:44:35;;;;;;;4.55;3.00;;;;;;;;;;5033093;28;20037;-78
2022/08/10 15:47:20;;;;;;;3.00;2.30;;;;;;;;;;5032357;28;20049;-78
2022/08/10 15:50:21;;;;;;;5.00;2.70;;;;;;;;;;5032552;28;20049;-77
2022/08/10 15:53:23;;;;;;;8.30;1.95;;;;;;;;;;5032293;28;20045;-77
2022/08/10 15:56:17;;;;;;;2.90;2.10;;;;;;;;;;5033118;28;20042;-77
2022/08/10 15:59:23;;;;;;;2.72;2.00;;;;;;;;;;5032619;28;20050;-77
2022/08/10 16:02:12;;;;;;;6.97;2.30;;;;;;;;;;5039713;28;20402;-77
2022/08/10 16:05:10;;;;;;;3.50;2.13;;;;;;;;;;5039856;28;20045;-76
2022/08/10 16:07:59;;;;;;;6.95;2.15;;;;;;;;;;5040008;28;20045;-76
2022/08/10 16:11:07;;;;;;;5.95;2.10;;;;;;;;;;5040052;28;20046;-77
2022/08/10 16:13:54;;;;;;;4.38;1.98;;;;;;;;;;5039247;28;20046;-80
2022/08/10 16:16:41;;;;;;;3.72;2.00;;;;;;;;;;5032763;28;20053;-79
2022/08/10 16:19:28;;;;;;;2.90;1.98;;;;;;;;;;5039694;28;20391;-77
2022/08/10 16:22:15;;;;;;;3.85;1.80;;;;;;;;;;5032757;28;20037;-78
2022/08/10 16:25:07;;;;;;;2.95;1.70;;;;;;;;;;5041443;28;20045;-77
2022/08/10 16:28:07;;;;;;;1.75;1.55;;;;;;;;;;5037124;28;20041;-80
2022/08/10 16:30:56;;;;;;;3.03;1.55;;;;;;;;;;5036934;28;20045;-80
2022/08/10 16:33:42;;;;;;;2.60;1.60;;;;;;;;;;5036469;28;20049;-78
2022/08/10 16:36:41;;;;;;;1.85;1.63;;;;;;;;;;5036074;28;20049;-77
2022/08/10 16:39:31;;;;;;;2.05;1.52;;;;;;;;;;5036098;28;20049;-79
2022/08/10 16:42:19;;;;;;;2.03;1.48;;;;;;;;;;5043209;28;20514;-83
2022/08/10 16:45:12;;;;;;;3.78;1.67;;;;;;;;;;5021766;28;20045;-82
2022/08/10 16:47:58;;;;;;;3.80;1.60;;;;;;;;;;5034888;28;20041;-82
2022/08/10 16:50:54;;;;;;;3.97;1.77;;;;;;;;;;5041319;28;20046;-80
2022/08/10 16:53:46;;;;;;;6.20;1.95;;;;;;;;;;5035430;28;20402;-78
2022/08/10 16:56:34;;;;;;;7.88;2.28;;;;;;;;;;5037333;28;20041;-80
2022/08/10 16:59:21;;;;;;;6.03;2.00;;;;;;;;;;5042880;28;20033;-78
2022/08/10 17:02:12;;;;;;;4.78;1.92;;;;;;;;;;5035756;28;20045;-78
2022/08/10 17:04:59;;;;;;;4.45;1.80;;;;;;;;;;5035781;28;20052;-77
2022/08/10 17:07:46;;;;;;;2.45;1.92;;;;;;;;;;5034952;28;20046;-79
2022/08/10 17:10:34;;;;;;;2.42;1.80;;;;;;;;;;5035729;28;20041;-79